sensor_id;sensor_type;location;lat;lon;timestamp;temperature;humidity
34640;DHT22;22600;48.186;11.526;2024-01-30T00:01:49;21.70;46.40
34640;DHT22;22600;48.186;11.526;2024-01-30T00:04:14;21.70;46.50
34640;DHT22;22600;48.186;11.526;2024-01-30T00:06:39;21.70;46.40
34640;DHT22;22600;48.186;11.526;2024-01-30T00:09:05;25.90;48.50
34640;DHT22;22600;48.186;11.526;2024-01-30T00:11:30;21.70;46.30
34640;DHT22;22600;48.186;11.526;2024-01-30T00:13:56;21.70;46.20
34640;DHT22;22600;48.186;11.526;2024-01-30T00:16:22;21.70;46.10
34640;DHT22;22600;48.186;11.526;2024-01-30T00:21:15;21.70;46.10
34640;DHT22;22600;48.186;11.526;2024-01-30T00:23:40;21.70;46.20
34640;DHT22;22600;48.186;11.526;2024-01-30T00:28:32;21.70;46.30
34640;DHT22;22600;48.186;11.526;2024-01-30T00:30:57;21.70;46.10
34640;DHT22;22600;48.186;11.526;2024-01-30T00:35:48;21.70;45.90
34640;DHT22;22600;48.186;11.526;2024-01-30T00:38:14;21.60;46.00
34640;DHT22;22600;48.186;11.526;2024-01-30T00:40:39;21.70;46.00
34640;DHT22;22600;48.186;11.526;2024-01-30T00:43:05;21.70;46.10
34640;DHT22;22600;48.186;11.526;2024-01-30T00:45:31;21.60;46.00
34640;DHT22;22600;48.186;11.526;2024-01-30T00:47:56;21.60;45.90
34640;DHT22;22600;48.186;11.526;2024-01-30T00:50:22;21.70;45.90
34640;DHT22;22600;48.186;11.526;2024-01-30T00:52:47;21.70;45.90
34640;DHT22;22600;48.186;11.526;2024-01-30T00:55:13;21.70;46.00
34640;DHT22;22600;48.186;11.526;2024-01-30T00:57:39;21.60;45.90
34640;DHT22;22600;48.186;11.526;2024-01-30T01:00:05;21.70;45.90
34640;DHT22;22600;48.186;11.526;2024-01-30T01:04:57;21.70;46.00
34640;DHT22;22600;48.186;11.526;2024-01-30T01:07:23;21.60;45.90
34640;DHT22;22600;48.186;11.526;2024-01-30T01:09:48;21.70;45.90
34640;DHT22;22600;48.186;11.526;2024-01-30T01:12:14;21.60;45.90
34640;DHT22;22600;48.186;11.526;2024-01-30T01:17:05;21.60;45.70
34640;DHT22;22600;48.186;11.526;2024-01-30T01:19:30;21.60;45.70
34640;DHT22;22600;48.186;11.526;2024-01-30T01:21:56;21.60;45.60
34640;DHT22;22600;48.186;11.526;2024-01-30T01:24:22;21.60;45.60
34640;DHT22;22600;48.186;11.526;2024-01-30T01:26:47;21.60;45.60
34640;DHT22;22600;48.186;11.526;2024-01-30T01:29:13;21.60;45.60
34640;DHT22;22600;48.186;11.526;2024-01-30T01:31:38;21.70;45.60
34640;DHT22;22600;48.186;11.526;2024-01-30T01:36:37;21.60;45.50
34640;DHT22;22600;48.186;11.526;2024-01-30T01:39:02;21.60;45.50
34640;DHT22;22600;48.186;11.526;2024-01-30T01:41:32;21.60;45.40
34640;DHT22;22600;48.186;11.526;2024-01-30T01:43:57;21.70;45.50
34640;DHT22;22600;48.186;11.526;2024-01-30T01:46:23;21.60;45.40
34640;DHT22;22600;48.186;11.526;2024-01-30T01:48:49;21.60;45.40
34640;DHT22;22600;48.186;11.526;2024-01-30T01:51:14;21.70;45.50
34640;DHT22;22600;48.186;11.526;2024-01-30T01:56:06;21.60;45.40
34640;DHT22;22600;48.186;11.526;2024-01-30T01:58:32;21.60;45.50
34640;DHT22;22600;48.186;11.526;2024-01-30T02:00:58;21.60;45.50
34640;DHT22;22600;48.186;11.526;2024-01-30T02:03:24;21.60;45.50
34640;DHT22;22600;48.186;11.526;2024-01-30T02:05:50;21.60;45.40
34640;DHT22;22600;48.186;11.526;2024-01-30T02:08:16;21.60;45.40
34640;DHT22;22600;48.186;11.526;2024-01-30T02:10:41;21.60;45.30
34640;DHT22;22600;48.186;11.526;2024-01-30T02:13:07;21.60;45.30
34640;DHT22;22600;48.186;11.526;2024-01-30T02:15:32;21.60;45.40
34640;DHT22;22600;48.186;11.526;2024-01-30T02:17:58;21.60;45.30
34640;DHT22;22600;48.186;11.526;2024-01-30T02:20:23;21.60;45.40
34640;DHT22;22600;48.186;11.526;2024-01-30T02:22:50;21.60;45.30
34640;DHT22;22600;48.186;11.526;2024-01-30T02:25:16;21.60;45.30
34640;DHT22;22600;48.186;11.526;2024-01-30T02:30:07;21.60;45.20
34640;DHT22;22600;48.186;11.526;2024-01-30T02:34:59;21.60;45.30
34640;DHT22;22600;48.186;11.526;2024-01-30T02:37:24;21.60;45.20
34640;DHT22;22600;48.186;11.526;2024-01-30T02:42:16;21.60;45.20
34640;DHT22;22600;48.186;11.526;2024-01-30T02:44:41;21.60;45.20
34640;DHT22;22600;48.186;11.526;2024-01-30T02:49:32;21.60;45.20
34640;DHT22;22600;48.186;11.526;2024-01-30T02:51:58;21.60;45.10
34640;DHT22;22600;48.186;11.526;2024-01-30T02:54:23;21.60;45.00
34640;DHT22;22600;48.186;11.526;2024-01-30T02:59:15;21.60;45.00
34640;DHT22;22600;48.186;11.526;2024-01-30T03:01:44;21.60;45.00
34640;DHT22;22600;48.186;11.526;2024-01-30T03:04:09;21.60;45.00
34640;DHT22;22600;48.186;11.526;2024-01-30T03:06:35;21.60;44.90
34640;DHT22;22600;48.186;11.526;2024-01-30T03:11:26;21.60;45.00
34640;DHT22;22600;48.186;11.526;2024-01-30T03:13:52;21.60;45.00
34640;DHT22;22600;48.186;11.526;2024-01-30T03:18:43;21.60;44.90
34640;DHT22;22600;48.186;11.526;2024-01-30T03:21:09;21.60;44.90
34640;DHT22;22600;48.186;11.526;2024-01-30T03:26:00;21.60;44.90
34640;DHT22;22600;48.186;11.526;2024-01-30T03:28:26;21.60;44.90
34640;DHT22;22600;48.186;11.526;2024-01-30T03:30:51;21.60;44.90
34640;DHT22;22600;48.186;11.526;2024-01-30T03:33:17;21.60;44.90
34640;DHT22;22600;48.186;11.526;2024-01-30T03:35:42;26.30;47.40
34640;DHT22;22600;48.186;11.526;2024-01-30T03:38:08;21.60;44.90
34640;DHT22;22600;48.186;11.526;2024-01-30T03:40:33;21.60;44.70
34640;DHT22;22600;48.186;11.526;2024-01-30T03:42:59;21.60;44.70
34640;DHT22;22600;48.186;11.526;2024-01-30T03:45:24;21.60;44.80
34640;DHT22;22600;48.186;11.526;2024-01-30T03:47:50;21.60;44.80
34640;DHT22;22600;48.186;11.526;2024-01-30T03:52:41;21.60;44.70
34640;DHT22;22600;48.186;11.526;2024-01-30T03:55:06;21.60;44.80
34640;DHT22;22600;48.186;11.526;2024-01-30T03:57:32;21.60;44.80
34640;DHT22;22600;48.186;11.526;2024-01-30T03:59:57;21.60;44.70
34640;DHT22;22600;48.186;11.526;2024-01-30T04:02:23;21.50;44.60
34640;DHT22;22600;48.186;11.526;2024-01-30T04:04:48;21.60;44.80
34640;DHT22;22600;48.186;11.526;2024-01-30T04:07:14;21.60;44.70
34640;DHT22;22600;48.186;11.526;2024-01-30T04:12:05;21.60;44.60
34640;DHT22;22600;48.186;11.526;2024-01-30T04:14:31;21.60;44.70
34640;DHT22;22600;48.186;11.526;2024-01-30T04:21:48;21.60;44.60
34640;DHT22;22600;48.186;11.526;2024-01-30T04:24:14;21.60;44.60
34640;DHT22;22600;48.186;11.526;2024-01-30T04:26:39;21.60;44.60
34640;DHT22;22600;48.186;11.526;2024-01-30T04:29:04;21.60;44.50
34640;DHT22;22600;48.186;11.526;2024-01-30T04:31:30;21.60;44.50
34640;DHT22;22600;48.186;11.526;2024-01-30T04:33:55;21.60;44.40
34640;DHT22;22600;48.186;11.526;2024-01-30T04:36:21;21.60;44.40
34640;DHT22;22600;48.186;11.526;2024-01-30T04:41:12;21.60;44.40
34640;DHT22;22600;48.186;11.526;2024-01-30T04:46:04;21.60;44.40
34640;DHT22;22600;48.186;11.526;2024-01-30T04:48:29;21.50;44.30
34640;DHT22;22600;48.186;11.526;2024-01-30T04:53:21;21.50;44.40
34640;DHT22;22600;48.186;11.526;2024-01-30T05:00:38;21.50;44.30
34640;DHT22;22600;48.186;11.526;2024-01-30T05:03:04;21.50;44.40
34640;DHT22;22600;48.186;11.526;2024-01-30T05:05:29;21.50;44.30
34640;DHT22;22600;48.186;11.526;2024-01-30T05:07:54;21.50;44.30
34640;DHT22;22600;48.186;11.526;2024-01-30T05:10:20;21.50;44.30
34640;DHT22;22600;48.186;11.526;2024-01-30T05:12:45;21.50;44.30
34640;DHT22;22600;48.186;11.526;2024-01-30T05:17:37;21.50;44.20
34640;DHT22;22600;48.186;11.526;2024-01-30T05:20:02;21.50;44.30
34640;DHT22;22600;48.186;11.526;2024-01-30T05:27:21;21.60;44.20
34640;DHT22;22600;48.186;11.526;2024-01-30T05:29:47;21.50;44.20
34640;DHT22;22600;48.186;11.526;2024-01-30T05:32:13;21.60;44.20
34640;DHT22;22600;48.186;11.526;2024-01-30T05:37:04;21.50;44.10
34640;DHT22;22600;48.186;11.526;2024-01-30T05:39:29;21.50;44.20
34640;DHT22;22600;48.186;11.526;2024-01-30T05:44:24;21.50;44.10
34640;DHT22;22600;48.186;11.526;2024-01-30T05:46:49;21.50;44.20
34640;DHT22;22600;48.186;11.526;2024-01-30T05:49:15;21.50;44.20
34640;DHT22;22600;48.186;11.526;2024-01-30T05:51:40;21.50;44.20
34640;DHT22;22600;48.186;11.526;2024-01-30T05:54:06;21.50;44.10
34640;DHT22;22600;48.186;11.526;2024-01-30T05:58:57;21.50;44.00
34640;DHT22;22600;48.186;11.526;2024-01-30T06:03:48;21.50;44.10
34640;DHT22;22600;48.186;11.526;2024-01-30T06:06:14;21.50;44.00
34640;DHT22;22600;48.186;11.526;2024-01-30T06:13:31;21.50;43.70
34640;DHT22;22600;48.186;11.526;2024-01-30T06:15:57;21.50;43.80
34640;DHT22;22600;48.186;11.526;2024-01-30T06:20:48;21.50;44.00
34640;DHT22;22600;48.186;11.526;2024-01-30T06:28:05;21.50;44.20
34640;DHT22;22600;48.186;11.526;2024-01-30T06:35:23;21.50;44.20
34640;DHT22;22600;48.186;11.526;2024-01-30T06:37:48;21.50;44.20
34640;DHT22;22600;48.186;11.526;2024-01-30T06:40:14;21.50;44.20
34640;DHT22;22600;48.186;11.526;2024-01-30T06:42:39;21.50;44.20
34640;DHT22;22600;48.186;11.526;2024-01-30T06:45:05;21.50;44.40
34640;DHT22;22600;48.186;11.526;2024-01-30T06:47:30;21.40;44.30
34640;DHT22;22600;48.186;11.526;2024-01-30T06:49:56;21.50;44.40
34640;DHT22;22600;48.186;11.526;2024-01-30T06:52:21;21.50;44.40
34640;DHT22;22600;48.186;11.526;2024-01-30T06:54:47;21.50;44.40
34640;DHT22;22600;48.186;11.526;2024-01-30T06:57:12;21.50;44.30
34640;DHT22;22600;48.186;11.526;2024-01-30T07:02:09;21.60;44.40
34640;DHT22;22600;48.186;11.526;2024-01-30T07:04:35;21.50;44.40
34640;DHT22;22600;48.186;11.526;2024-01-30T07:09:28;21.60;44.50
34640;DHT22;22600;48.186;11.526;2024-01-30T07:11:54;21.50;44.40
34640;DHT22;22600;48.186;11.526;2024-01-30T07:14:20;21.60;44.50
34640;DHT22;22600;48.186;11.526;2024-01-30T07:16:46;21.60;44.50
34640;DHT22;22600;48.186;11.526;2024-01-30T07:19:11;21.60;44.50
34640;DHT22;22600;48.186;11.526;2024-01-30T07:21:37;21.60;44.50
34640;DHT22;22600;48.186;11.526;2024-01-30T07:26:28;25.60;46.60
34640;DHT22;22600;48.186;11.526;2024-01-30T07:36:14;21.50;44.70
34640;DHT22;22600;48.186;11.526;2024-01-30T07:38:39;21.50;44.60
34640;DHT22;22600;48.186;11.526;2024-01-30T07:43:31;21.50;44.70
34640;DHT22;22600;48.186;11.526;2024-01-30T07:45:57;21.60;44.60
34640;DHT22;22600;48.186;11.526;2024-01-30T07:48:22;21.60;44.60
34640;DHT22;22600;48.186;11.526;2024-01-30T07:55:39;21.60;44.70
34640;DHT22;22600;48.186;11.526;2024-01-30T08:02:57;21.60;44.80
34640;DHT22;22600;48.186;11.526;2024-01-30T08:05:23;21.60;44.80
34640;DHT22;22600;48.186;11.526;2024-01-30T08:07:49;21.60;44.80
34640;DHT22;22600;48.186;11.526;2024-01-30T08:12:41;21.60;44.80
34640;DHT22;22600;48.186;11.526;2024-01-30T08:17:32;21.60;44.80
34640;DHT22;22600;48.186;11.526;2024-01-30T08:19:58;21.60;44.90
34640;DHT22;22600;48.186;11.526;2024-01-30T08:27:15;21.60;44.90
34640;DHT22;22600;48.186;11.526;2024-01-30T08:29:40;21.60;44.80
34640;DHT22;22600;48.186;11.526;2024-01-30T08:32:06;21.70;44.80
34640;DHT22;22600;48.186;11.526;2024-01-30T08:34:31;21.70;44.80
34640;DHT22;22600;48.186;11.526;2024-01-30T08:39:23;21.60;44.60
34640;DHT22;22600;48.186;11.526;2024-01-30T08:41:48;21.70;44.70
34640;DHT22;22600;48.186;11.526;2024-01-30T08:49:06;21.70;44.70
34640;DHT22;22600;48.186;11.526;2024-01-30T08:51:31;21.60;44.70
34640;DHT22;22600;48.186;11.526;2024-01-30T08:53:56;21.70;44.70
34640;DHT22;22600;48.186;11.526;2024-01-30T08:56:22;21.70;44.70
34640;DHT22;22600;48.186;11.526;2024-01-30T09:01:13;21.70;44.70
34640;DHT22;22600;48.186;11.526;2024-01-30T09:03:39;21.70;44.70
34640;DHT22;22600;48.186;11.526;2024-01-30T09:08:32;21.70;44.80
34640;DHT22;22600;48.186;11.526;2024-01-30T09:13:23;21.70;44.80
34640;DHT22;22600;48.186;11.526;2024-01-30T09:15:48;21.60;44.80
34640;DHT22;22600;48.186;11.526;2024-01-30T09:20:40;21.70;44.90
34640;DHT22;22600;48.186;11.526;2024-01-30T09:23:05;21.70;44.90
34640;DHT22;22600;48.186;11.526;2024-01-30T09:25:31;21.70;45.00
34640;DHT22;22600;48.186;11.526;2024-01-30T09:27:56;21.70;45.00
34640;DHT22;22600;48.186;11.526;2024-01-30T09:30:22;21.70;45.00
34640;DHT22;22600;48.186;11.526;2024-01-30T09:32:47;21.80;45.00
34640;DHT22;22600;48.186;11.526;2024-01-30T09:37:38;21.80;45.00
34640;DHT22;22600;48.186;11.526;2024-01-30T09:40:04;20.90;44.60
34640;DHT22;22600;48.186;11.526;2024-01-30T09:42:34;21.80;45.00
34640;DHT22;22600;48.186;11.526;2024-01-30T09:45:02;21.80;45.10
34640;DHT22;22600;48.186;11.526;2024-01-30T09:47:39;21.80;45.00
34640;DHT22;22600;48.186;11.526;2024-01-30T09:50:05;21.90;45.10
34640;DHT22;22600;48.186;11.526;2024-01-30T09:52:31;21.80;45.10
34640;DHT22;22600;48.186;11.526;2024-01-30T09:54:57;21.80;45.10
34640;DHT22;22600;48.186;11.526;2024-01-30T09:57:23;21.80;45.20
34640;DHT22;22600;48.186;11.526;2024-01-30T09:59:51;21.90;45.20
34640;DHT22;22600;48.186;11.526;2024-01-30T10:02:19;21.80;45.20
34640;DHT22;22600;48.186;11.526;2024-01-30T10:04:45;21.90;45.40
34640;DHT22;22600;48.186;11.526;2024-01-30T10:07:12;21.90;45.40
34640;DHT22;22600;48.186;11.526;2024-01-30T10:09:38;21.80;45.40
34640;DHT22;22600;48.186;11.526;2024-01-30T10:12:03;21.90;45.40
34640;DHT22;22600;48.186;11.526;2024-01-30T10:14:29;21.90;45.40
34640;DHT22;22600;48.186;11.526;2024-01-30T10:16:55;21.90;45.40
34640;DHT22;22600;48.186;11.526;2024-01-30T10:19:20;21.90;45.40
34640;DHT22;22600;48.186;11.526;2024-01-30T10:21:46;21.90;45.40
34640;DHT22;22600;48.186;11.526;2024-01-30T10:26:43;21.90;45.50
34640;DHT22;22600;48.186;11.526;2024-01-30T10:29:08;21.90;45.50
34640;DHT22;22600;48.186;11.526;2024-01-30T10:31:34;21.90;45.50
34640;DHT22;22600;48.186;11.526;2024-01-30T10:36:28;21.90;45.60
34640;DHT22;22600;48.186;11.526;2024-01-30T10:38:53;21.90;45.70
34640;DHT22;22600;48.186;11.526;2024-01-30T10:41:22;21.90;45.70
34640;DHT22;22600;48.186;11.526;2024-01-30T10:43:50;21.90;45.70
34640;DHT22;22600;48.186;11.526;2024-01-30T10:46:21;21.90;45.80
34640;DHT22;22600;48.186;11.526;2024-01-30T10:48:51;21.90;45.80
34640;DHT22;22600;48.186;11.526;2024-01-30T10:56:13;21.90;46.00
34640;DHT22;22600;48.186;11.526;2024-01-30T10:58:39;21.90;46.00
34640;DHT22;22600;48.186;11.526;2024-01-30T11:01:05;21.90;46.00
34640;DHT22;22600;48.186;11.526;2024-01-30T11:03:32;21.90;46.10
34640;DHT22;22600;48.186;11.526;2024-01-30T11:06:00;21.90;46.00
34640;DHT22;22600;48.186;11.526;2024-01-30T11:08:25;21.90;46.10
34640;DHT22;22600;48.186;11.526;2024-01-30T11:13:19;21.90;46.10
34640;DHT22;22600;48.186;11.526;2024-01-30T11:15:47;21.90;46.10
34640;DHT22;22600;48.186;11.526;2024-01-30T11:20:38;21.90;46.20
34640;DHT22;22600;48.186;11.526;2024-01-30T11:25:36;21.90;46.20
34640;DHT22;22600;48.186;11.526;2024-01-30T11:28:02;21.90;46.30
34640;DHT22;22600;48.186;11.526;2024-01-30T11:30:28;21.90;46.30
34640;DHT22;22600;48.186;11.526;2024-01-30T11:33:07;22.00;46.30
34640;DHT22;22600;48.186;11.526;2024-01-30T11:35:40;21.90;46.40
34640;DHT22;22600;48.186;11.526;2024-01-30T11:38:06;22.00;46.40
34640;DHT22;22600;48.186;11.526;2024-01-30T11:40:32;22.00;46.40
34640;DHT22;22600;48.186;11.526;2024-01-30T11:42:59;21.90;46.50
34640;DHT22;22600;48.186;11.526;2024-01-30T11:45:25;22.00;46.60
34640;DHT22;22600;48.186;11.526;2024-01-30T11:47:51;21.90;46.50
34640;DHT22;22600;48.186;11.526;2024-01-30T11:50:17;22.00;46.60
34640;DHT22;22600;48.186;11.526;2024-01-30T11:52:43;22.00;46.50
34640;DHT22;22600;48.186;11.526;2024-01-30T11:55:08;22.00;46.50
34640;DHT22;22600;48.186;11.526;2024-01-30T11:57:34;21.90;46.60
34640;DHT22;22600;48.186;11.526;2024-01-30T12:02:39;21.90;46.60
34640;DHT22;22600;48.186;11.526;2024-01-30T12:05:05;21.90;46.70
34640;DHT22;22600;48.186;11.526;2024-01-30T12:07:30;22.00;46.70
34640;DHT22;22600;48.186;11.526;2024-01-30T12:12:23;21.90;46.70
34640;DHT22;22600;48.186;11.526;2024-01-30T12:14:49;21.90;46.70
34640;DHT22;22600;48.186;11.526;2024-01-30T12:19:40;22.00;46.80
34640;DHT22;22600;48.186;11.526;2024-01-30T12:22:06;22.00;46.80
34640;DHT22;22600;48.186;11.526;2024-01-30T12:24:31;22.00;46.80
34640;DHT22;22600;48.186;11.526;2024-01-30T12:26:57;22.00;46.80
34640;DHT22;22600;48.186;11.526;2024-01-30T12:29:24;22.00;46.80
34640;DHT22;22600;48.186;11.526;2024-01-30T12:31:52;22.00;46.80
34640;DHT22;22600;48.186;11.526;2024-01-30T12:39:12;21.90;46.80
34640;DHT22;22600;48.186;11.526;2024-01-30T12:41:39;21.90;46.90
34640;DHT22;22600;48.186;11.526;2024-01-30T12:44:05;22.00;47.00
34640;DHT22;22600;48.186;11.526;2024-01-30T12:48:56;22.00;47.00
34640;DHT22;22600;48.186;11.526;2024-01-30T12:51:22;22.00;47.00
34640;DHT22;22600;48.186;11.526;2024-01-30T12:53:47;22.00;47.00
34640;DHT22;22600;48.186;11.526;2024-01-30T12:56:13;22.00;47.10
34640;DHT22;22600;48.186;11.526;2024-01-30T12:58:40;22.00;47.10
34640;DHT22;22600;48.186;11.526;2024-01-30T13:01:06;22.00;47.10
34640;DHT22;22600;48.186;11.526;2024-01-30T13:03:32;22.00;47.10
34640;DHT22;22600;48.186;11.526;2024-01-30T13:05:58;22.00;47.10
34640;DHT22;22600;48.186;11.526;2024-01-30T13:08:23;22.00;47.10
34640;DHT22;22600;48.186;11.526;2024-01-30T13:10:49;21.90;47.10
34640;DHT22;22600;48.186;11.526;2024-01-30T13:13:15;22.00;47.20
34640;DHT22;22600;48.186;11.526;2024-01-30T13:18:06;22.00;47.20
34640;DHT22;22600;48.186;11.526;2024-01-30T13:20:31;22.00;47.20
34640;DHT22;22600;48.186;11.526;2024-01-30T13:22:57;22.00;47.30
34640;DHT22;22600;48.186;11.526;2024-01-30T13:25:23;22.00;47.30
34640;DHT22;22600;48.186;11.526;2024-01-30T13:27:48;22.00;47.20
34640;DHT22;22600;48.186;11.526;2024-01-30T13:30:14;22.00;47.30
34640;DHT22;22600;48.186;11.526;2024-01-30T13:35:06;22.00;47.30
34640;DHT22;22600;48.186;11.526;2024-01-30T13:39:58;22.00;47.30
34640;DHT22;22600;48.186;11.526;2024-01-30T13:42:23;22.00;47.30
34640;DHT22;22600;48.186;11.526;2024-01-30T13:47:15;22.00;47.30
34640;DHT22;22600;48.186;11.526;2024-01-30T13:49:41;22.00;47.30
34640;DHT22;22600;48.186;11.526;2024-01-30T13:52:06;22.00;47.30
34640;DHT22;22600;48.186;11.526;2024-01-30T13:54:32;22.00;47.30
34640;DHT22;22600;48.186;11.526;2024-01-30T14:01:51;22.00;47.00
34640;DHT22;22600;48.186;11.526;2024-01-30T14:04:17;22.00;46.90
34640;DHT22;22600;48.186;11.526;2024-01-30T14:06:42;22.00;46.80
34640;DHT22;22600;48.186;11.526;2024-01-30T14:09:07;22.00;46.60
34640;DHT22;22600;48.186;11.526;2024-01-30T14:11:33;22.00;46.50
34640;DHT22;22600;48.186;11.526;2024-01-30T14:16:24;21.90;46.10
34640;DHT22;22600;48.186;11.526;2024-01-30T14:18:50;22.00;46.10
34640;DHT22;22600;48.186;11.526;2024-01-30T14:23:41;21.90;45.60
34640;DHT22;22600;48.186;11.526;2024-01-30T14:26:07;21.90;44.80
34640;DHT22;22600;48.186;11.526;2024-01-30T14:28:32;21.90;44.50
34640;DHT22;22600;48.186;11.526;2024-01-30T14:30:58;21.90;44.20
34640;DHT22;22600;48.186;11.526;2024-01-30T14:33:23;21.90;44.10
34640;DHT22;22600;48.186;11.526;2024-01-30T14:38:14;21.90;44.10
34640;DHT22;22600;48.186;11.526;2024-01-30T14:43:06;21.90;44.10
34640;DHT22;22600;48.186;11.526;2024-01-30T14:45:31;21.90;44.20
34640;DHT22;22600;48.186;11.526;2024-01-30T14:50:23;21.90;44.20
34640;DHT22;22600;48.186;11.526;2024-01-30T14:52:48;21.90;44.00
34640;DHT22;22600;48.186;11.526;2024-01-30T14:57:40;21.90;44.10
34640;DHT22;22600;48.186;11.526;2024-01-30T15:00:07;21.90;44.10
34640;DHT22;22600;48.186;11.526;2024-01-30T15:02:34;21.90;44.30
34640;DHT22;22600;48.186;11.526;2024-01-30T15:05:00;21.90;44.30
34640;DHT22;22600;48.186;11.526;2024-01-30T15:07:26;21.80;44.20
34640;DHT22;22600;48.186;11.526;2024-01-30T15:09:52;21.90;44.40
34640;DHT22;22600;48.186;11.526;2024-01-30T15:12:18;21.90;44.30
34640;DHT22;22600;48.186;11.526;2024-01-30T15:17:18;21.80;44.20
34640;DHT22;22600;48.186;11.526;2024-01-30T15:19:44;21.90;44.30
34640;DHT22;22600;48.186;11.526;2024-01-30T15:22:09;21.90;44.20
34640;DHT22;22600;48.186;11.526;2024-01-30T15:24:35;21.90;44.40
34640;DHT22;22600;48.186;11.526;2024-01-30T15:27:01;21.90;44.40
34640;DHT22;22600;48.186;11.526;2024-01-30T15:31:52;21.90;44.30
34640;DHT22;22600;48.186;11.526;2024-01-30T15:34:18;21.90;44.30
34640;DHT22;22600;48.186;11.526;2024-01-30T15:36:43;21.90;44.40
34640;DHT22;22600;48.186;11.526;2024-01-30T15:39:09;21.80;44.50
34640;DHT22;22600;48.186;11.526;2024-01-30T15:41:36;21.80;44.50
34640;DHT22;22600;48.186;11.526;2024-01-30T15:44:02;21.80;44.50
34640;DHT22;22600;48.186;11.526;2024-01-30T15:48:53;21.80;44.30
34640;DHT22;22600;48.186;11.526;2024-01-30T15:51:19;21.80;44.20
34640;DHT22;22600;48.186;11.526;2024-01-30T15:53:44;21.80;44.10
34640;DHT22;22600;48.186;11.526;2024-01-30T15:56:09;21.80;44.00
34640;DHT22;22600;48.186;11.526;2024-01-30T15:58:35;21.80;44.20
34640;DHT22;22600;48.186;11.526;2024-01-30T16:01:00;21.80;44.50
34640;DHT22;22600;48.186;11.526;2024-01-30T16:03:27;21.80;44.50
34640;DHT22;22600;48.186;11.526;2024-01-30T16:05:52;21.80;44.50
34640;DHT22;22600;48.186;11.526;2024-01-30T16:08:18;21.80;44.50
34640;DHT22;22600;48.186;11.526;2024-01-30T16:10:43;21.80;44.50
34640;DHT22;22600;48.186;11.526;2024-01-30T16:13:09;21.80;44.50
34640;DHT22;22600;48.186;11.526;2024-01-30T16:15:34;21.80;44.50
34640;DHT22;22600;48.186;11.526;2024-01-30T16:18:00;21.80;44.80
34640;DHT22;22600;48.186;11.526;2024-01-30T16:20:25;21.80;44.60
34640;DHT22;22600;48.186;11.526;2024-01-30T16:22:50;21.80;44.50
34640;DHT22;22600;48.186;11.526;2024-01-30T16:25:18;21.80;44.50
34640;DHT22;22600;48.186;11.526;2024-01-30T16:27:44;21.80;44.60
34640;DHT22;22600;48.186;11.526;2024-01-30T16:30:10;21.80;44.80
34640;DHT22;22600;48.186;11.526;2024-01-30T16:32:35;21.80;44.80
34640;DHT22;22600;48.186;11.526;2024-01-30T16:37:27;21.80;44.90
34640;DHT22;22600;48.186;11.526;2024-01-30T16:39:53;21.80;45.00
34640;DHT22;22600;48.186;11.526;2024-01-30T16:42:18;21.80;45.10
34640;DHT22;22600;48.186;11.526;2024-01-30T16:44:45;21.80;45.10
34640;DHT22;22600;48.186;11.526;2024-01-30T16:47:10;21.80;45.00
34640;DHT22;22600;48.186;11.526;2024-01-30T16:49:36;21.80;45.10
34640;DHT22;22600;48.186;11.526;2024-01-30T16:52:01;21.80;45.10
34640;DHT22;22600;48.186;11.526;2024-01-30T16:54:27;21.80;45.10
34640;DHT22;22600;48.186;11.526;2024-01-30T16:59:19;21.70;44.90
34640;DHT22;22600;48.186;11.526;2024-01-30T17:01:45;21.80;45.00
34640;DHT22;22600;48.186;11.526;2024-01-30T17:04:18;21.80;45.00
34640;DHT22;22600;48.186;11.526;2024-01-30T17:06:47;21.80;45.00
34640;DHT22;22600;48.186;11.526;2024-01-30T17:11:40;21.70;45.00
34640;DHT22;22600;48.186;11.526;2024-01-30T17:16:31;21.70;44.80
34640;DHT22;22600;48.186;11.526;2024-01-30T17:18:57;21.80;44.80
34640;DHT22;22600;48.186;11.526;2024-01-30T17:21:22;21.80;44.80
34640;DHT22;22600;48.186;11.526;2024-01-30T17:23:48;21.70;44.70
34640;DHT22;22600;48.186;11.526;2024-01-30T17:26:13;21.70;44.90
34640;DHT22;22600;48.186;11.526;2024-01-30T17:28:39;21.80;44.90
34640;DHT22;22600;48.186;11.526;2024-01-30T17:31:05;21.70;44.90
34640;DHT22;22600;48.186;11.526;2024-01-30T17:33:30;21.80;45.20
34640;DHT22;22600;48.186;11.526;2024-01-30T17:40:48;21.70;45.40
34640;DHT22;22600;48.186;11.526;2024-01-30T17:43:15;21.80;45.60
34640;DHT22;22600;48.186;11.526;2024-01-30T17:45:41;21.70;45.60
34640;DHT22;22600;48.186;11.526;2024-01-30T17:48:06;21.80;45.50
34640;DHT22;22600;48.186;11.526;2024-01-30T17:50:32;21.70;45.70
34640;DHT22;22600;48.186;11.526;2024-01-30T17:52:57;21.70;45.70
34640;DHT22;22600;48.186;11.526;2024-01-30T17:55:23;21.80;45.80
34640;DHT22;22600;48.186;11.526;2024-01-30T17:57:49;21.80;45.80
34640;DHT22;22600;48.186;11.526;2024-01-30T18:00:14;21.80;45.60
34640;DHT22;22600;48.186;11.526;2024-01-30T18:02:41;21.80;45.70
34640;DHT22;22600;48.186;11.526;2024-01-30T18:05:06;21.80;45.70
34640;DHT22;22600;48.186;11.526;2024-01-30T18:09:58;21.80;45.60
34640;DHT22;22600;48.186;11.526;2024-01-30T18:12:23;21.80;45.70
34640;DHT22;22600;48.186;11.526;2024-01-30T18:14:49;21.80;45.70
34640;DHT22;22600;48.186;11.526;2024-01-30T18:17:14;21.80;45.50
34640;DHT22;22600;48.186;11.526;2024-01-30T18:22:05;21.80;45.40
34640;DHT22;22600;48.186;11.526;2024-01-30T18:24:31;21.80;45.30
34640;DHT22;22600;48.186;11.526;2024-01-30T18:29:22;21.80;45.60
34640;DHT22;22600;48.186;11.526;2024-01-30T18:34:14;21.80;45.60
34640;DHT22;22600;48.186;11.526;2024-01-30T18:36:39;21.80;45.70
34640;DHT22;22600;48.186;11.526;2024-01-30T18:39:07;21.80;45.90
34640;DHT22;22600;48.186;11.526;2024-01-30T18:41:32;21.70;45.90
34640;DHT22;22600;48.186;11.526;2024-01-30T18:43:58;21.80;45.80
34640;DHT22;22600;48.186;11.526;2024-01-30T18:48:49;21.80;45.90
34640;DHT22;22600;48.186;11.526;2024-01-30T18:51:15;21.80;45.90
34640;DHT22;22600;48.186;11.526;2024-01-30T18:53:43;21.80;45.80
34640;DHT22;22600;48.186;11.526;2024-01-30T18:56:09;21.80;45.70
34640;DHT22;22600;48.186;11.526;2024-01-30T18:58:34;21.80;45.80
34640;DHT22;22600;48.186;11.526;2024-01-30T19:01:00;21.40;45.50
34640;DHT22;22600;48.186;11.526;2024-01-30T19:03:25;21.80;45.60
34640;DHT22;22600;48.186;11.526;2024-01-30T19:05:51;21.80;45.70
34640;DHT22;22600;48.186;11.526;2024-01-30T19:10:43;21.80;45.70
34640;DHT22;22600;48.186;11.526;2024-01-30T19:15:35;21.70;45.50